^^
Station Historical Data
Daily Summary for February 27, 2017 Units:  English    Metric   Both
« Previous Day
Next Day »
Daily Weekly Monthly Yearly Custom
  High: Low: Average:
Temperature: 52.1 °F 29.0 °F 41.7 °F
Dew Point: 33.2 °F 18.7 °F 24.7 °F
Humidity: 72% 34% 52%
Wind Speed: 8.0mph 0.0mph 2.5mph
Wind Gust: 20.0mph - -
Wind- - SSW
Pressure: 30.44 in 30.28 in -
Precipitation: 0.00 in    
Historical Graphs
 
 
Tabular Data for February 27, 2017
Time Temperature Dew Point Pressure Wind Wind Speed Wind Gust Humidity Rainfall Rate (Hourly) Conditions
00:00 31.5 °F 19.2 °F 30.28 in Calm   1.0 mph 60% 0.00 in CLR
00:15 31.0 °F 19.1 °F 30.29 in Calm   1.0 mph 61% 0.00 in CLR
00:30 30.6 °F 19.1 °F 30.29 in Calm   1.0 mph 62% 0.00 in CLR
00:45 30.4 °F 19.7 °F 30.30 in Calm   1.0 mph 64% 0.00 in CLR
01:00 30.8 °F 19.7 °F 30.30 in SSW 1.0 mph 3.0 mph 63% 0.00 in CLR
02:15 30.1 °F 18.7 °F 30.30 in Calm   3.0 mph 62% 0.00 in CLR
02:30 29.0 °F 21.1 °F 30.31 in Calm   1.0 mph 72% 0.00 in CLR
02:45 29.5 °F 19.9 °F 30.31 in Calm   2.0 mph 67% 0.00 in CLR
03:00 30.4 °F 19.6 °F 30.31 in Calm   2.0 mph 64% 0.00 in CLR
03:15 30.5 °F 19.4 °F 30.32 in Calm   3.0 mph 63% 0.00 in CLR
03:30 30.6 °F 19.1 °F 30.32 in South 1.0 mph 3.0 mph 62% 0.00 in CLR
03:45 30.8 °F 19.7 °F 30.33 in South 1.0 mph 6.0 mph 63% 0.00 in CLR
04:00 31.1 °F 20.3 °F 30.33 in South 1.0 mph 6.0 mph 64% 0.00 in CLR
04:15 31.1 °F 20.3 °F 30.35 in South 1.0 mph 6.0 mph 64% 0.00 in CLR
04:30 31.1 °F 20.3 °F 30.35 in SSE 1.0 mph 5.0 mph 64% 0.00 in CLR
04:45 31.3 °F 20.2 °F 30.36 in SSE 1.0 mph 5.0 mph 63% 0.00 in CLR
05:00 31.3 °F 20.2 °F 30.37 in Calm   4.0 mph 63% 0.00 in CLR
05:15 31.2 °F 20.1 °F 30.38 in Calm   4.0 mph 63% 0.00 in CLR
05:30 31.2 °F 20.4 °F 30.38 in Calm   4.0 mph 64% 0.00 in CLR
05:45 31.0 °F 20.6 °F 30.38 in Calm   4.0 mph 65% 0.00 in CLR
06:00 30.9 °F 20.5 °F 30.39 in Calm   3.0 mph 65% 0.00 in CLR
06:15 30.9 °F 20.5 °F 30.39 in Calm   2.0 mph 65% 0.00 in CLR
06:30 30.7 °F 20.0 °F 30.39 in Calm   2.0 mph 64% 0.00 in CLR
06:45 30.8 °F 20.0 °F 30.38 in Calm   3.0 mph 64% 0.00 in CLR
07:00 31.1 °F 20.0 °F 30.39 in Calm   4.0 mph 63% 0.00 in CLR
07:15 31.5 °F 20.0 °F 30.40 in Calm   4.0 mph 62% 0.00 in CLR
07:30 31.9 °F 20.3 °F 30.41 in Calm   2.0 mph 62% 0.00 in CLR
07:45 32.5 °F 20.5 °F 30.41 in SSW 1.0 mph 5.0 mph 61% 0.00 in CLR
08:00 33.3 °F 20.9 °F 30.42 in South 1.0 mph 5.0 mph 60% 0.00 in CLR
08:15 34.2 °F 21.4 °F 30.42 in SSW 2.0 mph 6.0 mph 59% 0.00 in CLR
08:30 35.1 °F 21.8 °F 30.43 in SW 3.0 mph 9.0 mph 58% 0.00 in CLR
08:45 36.1 °F 22.3 °F 30.43 in SSW 2.0 mph 9.0 mph 57% 0.00 in CLR
09:00 37.2 °F 22.9 °F 30.43 in SSW 2.0 mph 9.0 mph 56% 0.00 in CLR
09:15 38.0 °F 23.7 °F 30.43 in South 6.0 mph 12.0 mph 56% 0.00 in CLR
09:30 38.9 °F 24.1 °F 30.43 in SSW 6.0 mph 12.0 mph 55% 0.00 in CLR
09:45 39.8 °F 24.0 °F 30.44 in SSW 6.0 mph 12.0 mph 53% 0.00 in CLR
10:00 40.8 °F 24.9 °F 30.44 in SW 6.0 mph 12.0 mph 53% 0.00 in CLR
10:15 42.2 °F 26.3 °F 30.44 in SSW 7.0 mph 12.0 mph 53% 0.00 in CLR
10:30 43.5 °F 26.5 °F 30.44 in SW 7.0 mph 15.0 mph 51% 0.00 in CLR
10:45 44.2 °F 26.7 °F 30.43 in SSW 7.0 mph 14.0 mph 50% 0.00 in CLR
11:00 45.0 °F 26.5 °F 30.43 in SSW 8.0 mph 17.0 mph 48% 0.00 in CLR
11:15 46.0 °F 26.4 °F 30.43 in SW 8.0 mph 15.0 mph 46% 0.00 in CLR
11:30 46.9 °F 27.2 °F 30.43 in SSW 2.0 mph 14.0 mph 46% 0.00 in CLR
11:45 47.6 °F 26.1 °F 30.43 in SSW 6.0 mph 17.0 mph 43% 0.00 in CLR
12:00 47.9 °F 25.3 °F 30.43 in WSW 7.0 mph 16.0 mph 41% 0.00 in CLR
12:15 48.4 °F 25.2 °F 30.42 in SSW 6.0 mph 15.0 mph 40% 0.00 in CLR
12:30 48.8 °F 23.6 °F 30.40 in SW 8.0 mph 16.0 mph 37% 0.00 in CLR
12:45 49.2 °F 23.3 °F 30.40 in South 8.0 mph 20.0 mph 36% 0.00 in CLR
13:00 50.1 °F 24.2 °F 30.39 in SSW 6.0 mph 14.0 mph 36% 0.00 in CLR
13:15 50.6 °F 25.2 °F 30.39 in SSW 3.0 mph 18.0 mph 37% 0.00 in CLR
13:30 50.9 °F 25.5 °F 30.38 in SSW 5.0 mph 13.0 mph 37% 0.00 in CLR
13:45 51.1 °F 25.0 °F 30.38 in SSW 5.0 mph 13.0 mph 36% 0.00 in CLR
14:00 51.1 °F 23.7 °F 30.37 in SSW 6.0 mph 15.0 mph 34% 0.00 in CLR
14:15 51.0 °F 24.3 °F 30.37 in SW 3.0 mph 12.0 mph 35% 0.00 in FEW
14:30 50.6 °F 24.6 °F 30.37 in SSW 6.0 mph 12.0 mph 36% 0.00 in FEW
14:45 50.7 °F 25.3 °F 30.37 in SW 5.0 mph 14.0 mph 37% 0.00 in FEW
15:00 50.7 °F 25.3 °F 30.38 in SSW 6.0 mph 12.0 mph 37% 0.00 in FEW
15:15 51.2 °F 25.8 °F 30.38 in SW 5.0 mph 12.0 mph 37% 0.00 in FEW
15:30 51.3 °F 26.5 °F 30.37 in SSW 3.0 mph 10.0 mph 38% 0.00 in FEW
15:45 51.7 °F 25.6 °F 30.37 in South 6.0 mph 12.0 mph 36% 0.00 in FEW
16:00 52.1 °F 25.3 °F 30.37 in SSW 5.0 mph 14.0 mph 35% 0.00 in FEW
16:15 52.0 °F 25.2 °F 30.37 in SW 5.0 mph 12.0 mph 35% 0.00 in CLR
16:30 51.6 °F 24.8 °F 30.37 in SSW 8.0 mph 15.0 mph 35% 0.00 in CLR
16:45 51.5 °F 25.4 °F 30.38 in SW 3.0 mph 14.0 mph 36% 0.00 in CLR
17:00 50.8 °F 24.8 °F 30.38 in SW 7.0 mph 14.0 mph 36% 0.00 in CLR
17:15 50.3 °F 26.3 °F 30.38 in SW 3.0 mph 13.0 mph 39% 0.00 in SCT
17:30 49.7 °F 26.3 °F 30.39 in SW 1.0 mph 12.0 mph 40% 0.00 in SCT
17:45 49.3 °F 26.6 °F 30.39 in SW 1.0 mph 5.0 mph 41% 0.00 in SCT
18:00 48.9 °F 26.8 °F 30.40 in SW 2.0 mph 7.0 mph 42% 0.00 in SCT
18:15 48.5 °F 27.0 °F 30.40 in SW 1.0 mph 7.0 mph 43% 0.00 in SCT
18:30 48.1 °F 27.2 °F 30.40 in SSW 1.0 mph 4.0 mph 44% 0.00 in SCT
18:45 47.7 °F 26.8 °F 30.41 in SSW 1.0 mph 4.0 mph 44% 0.00 in SCT
19:00 47.3 °F 27.6 °F 30.41 in Calm   3.0 mph 46% 0.00 in SCT
19:15 47.0 °F 27.8 °F 30.41 in Calm   2.0 mph 47% 0.00 in FEW
19:30 47.1 °F 28.4 °F 30.41 in SSW 1.0 mph 4.0 mph 48% 0.00 in FEW
19:45 47.2 °F 29.0 °F 30.41 in SSW 2.0 mph 7.0 mph 49% 0.00 in FEW
20:00 47.6 °F 29.9 °F 30.41 in SSW 2.0 mph 7.0 mph 50% 0.00 in FEW
20:15 47.8 °F 30.0 °F 30.41 in SSW 1.0 mph 6.0 mph 50% 0.00 in OVC
20:30 47.7 °F 30.4 °F 30.41 in SSW 1.0 mph 6.0 mph 51% 0.00 in OVC
20:45 47.2 °F 30.5 °F 30.40 in SSW 1.0 mph 6.0 mph 52% 0.00 in OVC
21:00 46.5 °F 30.7 °F 30.41 in Calm   3.0 mph 54% 0.00 in OVC
21:15 45.8 °F 30.6 °F 30.41 in SW 1.0 mph 3.0 mph 55% 0.00 in SCT
21:30 45.3 °F 31.0 °F 30.41 in Calm   2.0 mph 57% 0.00 in SCT
21:45 44.9 °F 31.0 °F 30.42 in SSW 1.0 mph 2.0 mph 58% 0.00 in SCT
22:00 44.6 °F 31.1 °F 30.42 in SSW 1.0 mph 2.0 mph 59% 0.00 in SCT
22:15 45.1 °F 32.0 °F 30.42 in Calm   5.0 mph 60% 0.00 in CLR
22:30 45.7 °F 32.2 °F 30.41 in SSW 1.0 mph 5.0 mph 59% 0.00 in CLR
22:45 45.8 °F 31.9 °F 30.41 in South 1.0 mph 4.0 mph 58% 0.00 in CLR
23:00 45.0 °F 31.9 °F 30.41 in Calm     60% 0.00 in CLR
23:15 44.1 °F 32.3 °F 30.41 in Calm   2.0 mph 63% 0.00 in OVC
23:30 44.4 °F 33.0 °F 30.41 in Calm   2.0 mph 64% 0.00 in OVC
23:45 44.6 °F 33.2 °F 30.40 in Calm   3.0 mph 64% 0.00 in OVC
TarryTown NY Weather
Compliments of Weather Underground - 1.5 mb